Kezdőlap
METAR-TAF:

METAR-TAF

Repülőterek :

Donau

Neuburg, Németország

földrajzi szélesség: 48-43N, földrajzi hosszúság: 011-13E, magasság: 380 m

Jelenlegi meteorológiai megfigyelések

A jelentés 35 perccel ezelõtt készült, 13:20 UTC
Nyugat-délnyugati szél 12 kt
Hőmérséklet 8°C
Páratartalom 53%
Légköri nyomás 1026 hPa
Látótávolság 10 km, vagy több
Kevés felhő 4500 lábon
Szakadozott felhőzet 6000 lábon

METAR: ETSN 181320Z 24012KT 9999 FEW045 BKN060 08/M01 Q1026 BLU BLU

Idő: 14:55 (13:55 UTC)

Előrejelzés

A jelentés 2 órával és 45 perccel ezelõtt készült, 11:10 UTC
Az előrejelzés 18-én 12 óra UTC és 18-én 21 óra UTC között érvényes
Nyugat-délnyugati szél 12 kt széllökések: 25 kt
Látótávolság 10 km, vagy több
Szakadozott felhőzet 4500 lábon

TAF: ETSN 181110Z 1812/1821 25012G25KT 9999 NSW BKN045 BY ETGL

Meteorológiai megfigyelések és előrejelzések több, mint 4000 repülőtéren (METAR és TAF jelentéseket).

A térképen piros és sárga pontok jelzik az elérhető meteorológiai állomásokat.

Mozgassa az egeret a pont fölött, hogy megjelenjen az állomás neve.

Azután kattintson az időjárási megfigyelések és előrejelzések megtekintéséhez.

A térkép megváltoztatása: kattintson a fekete keresztel jelölt zöld gombra ráközelítéshez, a vonallal jelölt zöld gombra távolításhoz, vagy a zöld nyilakra a szomszédos térképek eléréséhez.


METAR-TAF: